Time;durP1;ratioP1;P1;durP2;ratioP2;P2;SDS_P1;SDS_P2;PMS_P1;PMS_P2;Temp;Humidity;BMP_temperature;BMP_pressure;BME280_temperature;BME280_humidity;BME280_pressure;Samples;Min_cycle;Max_cycle;Signal;HPM_P1;HPM_P2
2023/08/20 00:02:37;;;;;;;41.60;8.43;;;22.20;1.00;;;;;;5043132;28;20586;-78
2023/08/20 00:05:06;;;;;;;52.27;8.10;;;22.10;1.00;;;;;;5052251;28;20423;-78
2023/08/20 00:07:42;;;;;;;44.43;7.80;;;22.10;1.00;;;;;;5043069;28;20431;-78
2023/08/20 00:10:18;;;;;;;37.23;8.07;;;22.10;1.00;;;;;;5044961;28;20483;-78
2023/08/20 00:12:54;;;;;;;39.73;8.30;;;22.10;1.00;;;;;;5050937;28;20423;-81
2023/08/20 00:15:48;;;;;;;42.53;8.70;;;22.10;1.00;;;;;;5035145;28;20771;-81
2023/08/20 00:18:18;;;;;;;48.20;8.20;;;22.10;1.00;;;;;;5036480;28;20431;-81
2023/08/20 00:20:55;;;;;;;42.40;8.20;;;22.00;1.00;;;;;;5046753;28;20415;-81
2023/08/20 00:23:48;;;;;;;51.70;8.97;;;22.00;1.00;;;;;;5048452;28;20453;-81
2023/08/20 00:26:14;;;;;;;43.20;9.40;;;21.90;1.00;;;;;;5054570;28;20428;-79
2023/08/20 00:28:42;;;;;;;46.57;8.77;;;21.90;1.00;;;;;;5054223;28;20443;-78
2023/08/20 00:31:12;;;;;;;41.37;8.13;;;21.80;1.00;;;;;;5037974;28;20949;-79
2023/08/20 00:33:43;;;;;;;39.63;8.20;;;21.80;1.00;;;;;;5041996;28;20414;-78
2023/08/20 00:36:12;;;;;;;49.83;8.60;;;21.80;1.00;;;;;;5055322;28;20937;-78
2023/08/20 00:38:42;;;;;;;40.60;8.93;;;21.70;1.00;;;;;;5055361;28;20425;-78
2023/08/20 00:41:12;;;;;;;47.10;8.80;;;21.70;1.00;;;;;;5054220;28;20450;-78
2023/08/20 00:43:48;;;;;;;41.37;8.03;;;21.70;1.00;;;;;;5043251;28;20433;-78
2023/08/20 00:46:18;;;;;;;39.97;8.37;;;21.60;1.00;;;;;;5055869;28;20935;-78
2023/08/20 00:49:06;;;;;;;42.83;8.97;;;21.60;1.00;;;;;;5038491;28;20489;-78
2023/08/20 00:51:37;;;;;;;37.57;8.67;;;21.60;1.00;;;;;;5055192;28;20426;-78
2023/08/20 00:54:07;;;;;;;41.03;8.33;;;21.50;1.00;;;;;;5035258;28;20458;-78
2023/08/20 00:56:32;;;;;;;38.60;8.33;;;21.50;1.00;;;;;;5042069;28;20434;-78
2023/08/20 00:58:59;;;;;;;44.83;9.13;;;21.50;1.00;;;;;;5040718;28;20423;-77
2023/08/20 01:01:24;;;;;;;43.30;8.73;;;21.40;1.00;;;;;;5048697;28;20985;-78
2023/08/20 01:03:52;;;;;;;41.00;8.73;;;21.40;1.00;;;;;;5053737;28;20433;-78
2023/08/20 01:06:48;;;;;;;45.70;9.10;;;21.30;1.00;;;;;;5037853;28;20205;-78
2023/08/20 01:09:44;;;;;;;39.63;8.10;;;21.30;1.00;;;;;;5054210;28;20916;-78
2023/08/20 01:12:13;;;;;;;47.83;8.33;;;21.20;1.00;;;;;;5040142;28;20422;-78
2023/08/20 01:14:42;;;;;;;48.37;9.10;;;21.20;1.00;;;;;;5048477;28;20742;-78
2023/08/20 01:17:12;;;;;;;48.63;9.67;;;21.10;1.00;;;;;;5039497;28;20775;-78
2023/08/20 01:19:42;;;;;;;42.93;9.37;;;21.10;1.00;;;;;;5055011;28;20400;-78
2023/08/20 01:22:29;;;;;;;40.90;9.43;;;20.90;1.00;;;;;;5054004;28;20519;-78
2023/08/20 01:25:25;;;;;;;52.83;10.03;;;20.90;1.00;;;;;;5047207;28;20467;-78
2023/08/20 01:28:00;;;;;;;42.77;9.27;;;20.80;1.00;;;;;;5043612;28;20460;-80
2023/08/20 01:30:31;;;;;;;40.67;9.23;;;20.80;1.00;;;;;;5051636;28;20449;-81
2023/08/20 01:32:58;;;;;;;50.87;9.03;;;20.80;1.00;;;;;;5048064;28;20500;-81
2023/08/20 01:35:36;;;;;;;42.33;9.40;;;20.70;1.00;;;;;;5035825;28;20444;-81
2023/08/20 01:38:07;;;;;;;39.60;9.50;;;20.70;1.00;;;;;;5034530;28;20953;-80
2023/08/20 01:40:56;;;;;;;43.20;8.57;;;20.70;1.00;;;;;;5048191;28;20826;-80
2023/08/20 01:43:30;;;;;;;55.90;9.30;;;20.70;1.00;;;;;;5053365;28;20440;-78
2023/08/20 01:46:07;;;;;;;40.53;9.50;;;20.60;1.00;;;;;;5054459;28;20397;-78
2023/08/20 01:48:36;;;;;;;54.40;11.00;;;20.60;1.00;;;;;;5045681;28;20943;-78
2023/08/20 01:51:02;;;;;;;44.03;10.87;;;20.60;1.00;;;;;;5042583;28;20460;-78
2023/08/20 01:53:30;;;;;;;40.70;9.70;;;20.60;1.00;;;;;;5044057;28;20945;-77
2023/08/20 01:55:56;;;;;;;41.00;9.70;;;20.60;1.00;;;;;;5052659;28;20954;-78
2023/08/20 01:58:32;;;;;;;43.07;9.73;;;20.60;1.00;;;;;;5053888;28;20428;-80
2023/08/20 02:00:57;;;;;;;44.67;10.50;;;20.50;1.00;;;;;;5052856;28;20164;-80
2023/08/20 02:03:31;;;;;;;41.17;9.20;;;20.50;1.00;;;;;;5052539;28;20440;-80
2023/08/20 02:06:00;;;;;;;55.30;10.60;;;20.50;1.00;;;;;;5053765;28;20184;-80
2023/08/20 02:08:48;;;;;;;45.43;9.87;;;20.40;1.00;;;;;;5053074;28;20836;-80
2023/08/20 02:11:18;;;;;;;48.13;10.20;;;20.40;1.00;;;;;;5040462;28;20945;-80
2023/08/20 02:13:44;;;;;;;43.63;10.10;;;20.40;1.00;;;;;;5053410;28;20806;-79
2023/08/20 02:16:09;;;;;;;42.13;10.00;;;20.40;1.00;;;;;;5051627;28;20422;-78
2023/08/20 02:18:37;;;;;;;47.63;10.17;;;20.40;1.00;;;;;;5053911;28;20165;-78
2023/08/20 02:21:12;;;;;;;42.90;10.27;;;20.30;1.00;;;;;;5047785;28;20630;-78
2023/08/20 02:23:42;;;;;;;55.93;10.53;;;20.30;1.50;;;;;;5046406;28;20828;-78
2023/08/20 02:26:18;;;;;;;57.20;10.90;;;20.20;2.00;;;;;;5051575;28;20421;-78
2023/08/20 02:29:00;;;;;;;47.00;10.60;;;20.20;4.70;;;;;;5051505;28;20424;-80
2023/08/20 02:31:30;;;;;;;51.70;10.13;;;20.20;7.80;;;;;;5044241;28;20431;-80
2023/08/20 02:34:18;;;;;;;44.67;12.23;;;20.20;8.30;;;;;;5040659;28;20443;-81
2023/08/20 02:36:43;;;;;;;49.10;9.90;;;20.20;8.90;;;;;;5052207;28;20431;-81
2023/08/20 02:39:13;;;;;;;51.00;10.63;;;20.20;8.90;;;;;;5041607;28;20420;-80
2023/08/20 02:41:54;;;;;;;44.90;10.80;;;20.20;9.90;;;;;;5048211;28;20177;-81
2023/08/20 02:44:30;;;;;;;54.50;10.63;;;20.20;11.70;;;;;;5045306;28;20932;-79
2023/08/20 02:47:06;;;;;;;41.13;10.13;;;20.10;12.30;;;;;;5039210;28;20422;-78
2023/08/20 02:49:36;;;;;;;44.10;10.70;;;20.10;13.70;;;;;;5041519;28;20460;-79
2023/08/20 02:52:06;;;;;;;48.67;11.03;;;20.00;16.20;;;;;;5045832;28;20421;-78
2023/08/20 02:55:06;;;;;;;45.93;11.70;;;20.00;19.70;;;;;;5051952;28;20439;-78
2023/08/20 02:57:31;;;;;;;54.13;10.73;;;20.00;16.60;;;;;;5051303;28;20452;-78
2023/08/20 03:00:11;;;;;;;45.60;11.20;;;20.00;18.70;;;;;;5049394;28;20979;-78
2023/08/20 03:02:42;;;;;;;50.00;10.53;;;20.00;19.50;;;;;;5045276;28;20187;-78
2023/08/20 03:05:12;;;;;;;51.80;10.30;;;20.00;18.40;;;;;;5032199;28;20397;-79
2023/08/20 03:07:42;;;;;;;47.20;10.80;;;19.90;19.70;;;;;;5047532;28;21025;-78
2023/08/20 03:10:36;;;;;;;51.53;11.30;;;20.00;20.50;;;;;;5044371;28;20459;-78
2023/08/20 03:13:06;;;;;;;60.93;11.87;;;20.00;20.00;;;;;;5041937;28;20475;-79
2023/08/20 03:15:54;;;;;;;53.90;12.20;;;20.00;23.00;;;;;;5046918;28;20475;-78
2023/08/20 03:18:19;;;;;;;47.83;11.17;;;20.00;22.90;;;;;;5045258;28;20516;-79
2023/08/20 03:21:06;;;;;;;43.23;10.20;;;19.90;22.90;;;;;;5039236;28;20547;-79
2023/08/20 03:23:36;;;;;;;50.90;11.77;;;19.90;25.10;;;;;;5046692;28;20181;-78
2023/08/20 03:26:12;;;;;;;41.47;10.80;;;19.90;25.20;;;;;;5041547;28;20446;-78
2023/08/20 03:28:48;;;;;;;41.00;10.20;;;19.90;25.80;;;;;;5046255;28;20929;-78
2023/08/20 03:31:24;;;;;;;44.10;10.20;;;20.00;23.40;;;;;;5045606;28;20805;-78
2023/08/20 03:33:54;;;;;;;50.47;10.90;;;19.90;26.10;;;;;;5052830;28;20418;-78
2023/08/20 03:36:24;;;;;;;45.50;11.00;;;19.90;26.80;;;;;;5039702;28;20866;-79
2023/08/20 03:38:54;;;;;;;47.23;10.70;;;19.90;26.40;;;;;;5047095;28;20498;-78
2023/08/20 03:41:24;;;;;;;46.30;10.90;;;19.90;26.70;;;;;;5051281;28;20390;-78
2023/08/20 03:44:06;;;;;;;43.67;10.90;;;19.90;28.40;;;;;;5041566;28;20925;-85
2023/08/20 03:46:36;;;;;;;49.33;10.80;;;19.80;28.30;;;;;;5045447;28;20515;-84
2023/08/20 03:49:06;;;;;;;44.70;10.60;;;19.80;30.20;;;;;;5047691;28;20436;-84
2023/08/20 03:51:36;;;;;;;51.67;11.50;;;19.80;30.00;;;;;;5039353;28;20444;-84
2023/08/20 03:54:06;;;;;;;44.23;10.47;;;19.80;28.90;;;;;;5051963;28;20510;-85
2023/08/20 03:56:36;;;;;;;52.03;11.40;;;19.80;28.40;;;;;;5055809;28;20403;-84
2023/08/20 03:59:41;;;;;;;46.20;10.70;;;19.80;29.20;;;;;;5055640;28;20385;-85
2023/08/20 04:02:24;;;;;;;49.83;10.90;;;19.80;31.50;;;;;;5049217;28;20433;-84
2023/08/20 04:05:06;;;;;;;45.63;11.70;;;19.80;31.90;;;;;;5054212;28;20447;-85
2023/08/20 04:07:36;;;;;;;52.23;11.43;;;19.80;32.90;;;;;;5055796;28;20500;-84
2023/08/20 04:10:08;;;;;;;49.57;11.87;;;19.80;29.80;;;;;;5055584;28;20988;-85
2023/08/20 04:13:06;;;;;;;41.57;11.70;;;19.80;34.30;;;;;;5045818;28;20434;-84
2023/08/20 04:15:36;;;;;;;51.80;10.80;;;19.80;36.00;;;;;;5052153;28;20453;-80
2023/08/20 04:18:06;;;;;;;42.60;10.47;;;19.80;33.40;;;;;;5047717;28;20950;-80
2023/08/20 04:20:36;;;;;;;49.07;10.70;;;19.80;40.40;;;;;;5041470;28;20780;-80
2023/08/20 04:23:06;;;;;;;43.73;11.30;;;19.80;42.60;;;;;;5045899;28;20438;-80
2023/08/20 04:25:54;;;;;;;45.30;11.10;;;19.90;47.60;;;;;;5049496;28;20461;-80
2023/08/20 04:28:36;;;;;;;44.37;11.17;;;19.90;50.70;;;;;;5045097;28;20409;-80
2023/08/20 04:31:06;;;;;;;46.13;11.37;;;20.00;46.30;;;;;;5053255;28;20513;-85
2023/08/20 04:33:48;;;;;;;49.43;11.40;;;20.00;47.80;;;;;;5045778;28;20934;-85
2023/08/20 04:36:36;;;;;;;49.20;11.57;;;20.00;47.70;;;;;;5054628;28;20424;-85
2023/08/20 04:39:06;;;;;;;57.93;11.90;;;20.10;45.20;;;;;;5054696;28;20494;-85
2023/08/20 04:41:32;;;;;;;44.30;12.50;;;20.20;42.10;;;;;;5053979;28;20410;-85
2023/08/20 04:44:36;;;;;;;46.07;11.57;;;20.20;40.80;;;;;;5050874;28;20420;-84
2023/08/20 04:47:24;;;;;;;47.30;12.30;;;20.30;40.10;;;;;;5049391;28;20188;-85
2023/08/20 04:50:06;;;;;;;43.50;11.67;;;20.40;38.00;;;;;;5051175;28;20522;-85
2023/08/20 04:52:36;;;;;;;55.30;11.30;;;20.40;38.90;;;;;;5043334;28;20435;-85
2023/08/20 04:55:07;;;;;;;43.53;11.13;;;20.50;38.70;;;;;;5054117;28;20437;-85
2023/08/20 04:57:36;;;;;;;51.07;10.97;;;20.50;38.10;;;;;;5056054;28;20770;-85
2023/08/20 05:00:03;;;;;;;46.33;10.57;;;20.60;38.40;;;;;;5054334;28;20444;-80
2023/08/20 05:02:36;;;;;;;54.43;11.83;;;20.60;38.00;;;;;;5047797;28;20528;-80
2023/08/20 05:05:06;;;;;;;48.83;11.60;;;20.70;40.80;;;;;;5040913;28;20398;-80
2023/08/20 05:07:36;;;;;;;54.40;12.30;;;20.80;34.20;;;;;;5047011;28;20525;-80
2023/08/20 05:10:24;;;;;;;48.60;10.53;;;20.90;32.30;;;;;;5035261;28;20479;-80
2023/08/20 05:13:06;;;;;;;41.23;10.50;;;20.90;32.10;;;;;;5049811;28;20923;-80
2023/08/20 05:15:36;;;;;;;42.50;10.40;;;21.00;29.50;;;;;;5043735;28;20445;-79
2023/08/20 05:18:06;;;;;;;43.17;10.70;;;21.00;27.80;;;;;;5054138;28;20391;-80
2023/08/20 05:20:36;;;;;;;45.07;10.47;;;21.00;29.70;;;;;;5042364;28;20491;-80
2023/08/20 05:23:06;;;;;;;58.33;10.23;;;21.00;25.90;;;;;;5044304;28;20445;-80
2023/08/20 05:25:36;;;;;;;39.90;9.13;;;21.10;24.80;;;;;;5040179;28;20435;-80
2023/08/20 05:28:06;;;;;;;39.93;9.40;;;21.10;24.60;;;;;;5054967;28;20913;-79
2023/08/20 05:30:36;;;;;;;51.80;10.27;;;21.10;24.30;;;;;;5052327;28;20981;-80
2023/08/20 05:33:12;;;;;;;45.13;10.03;;;21.20;24.60;;;;;;5052899;28;20434;-80
2023/08/20 05:35:54;;;;;;;39.70;10.30;;;21.20;23.50;;;;;;5054408;28;20886;-79
2023/08/20 05:38:42;;;;;;;40.70;9.43;;;21.30;23.80;;;;;;5052596;28;20428;-80
2023/08/20 05:41:18;;;;;;;46.43;9.60;;;21.40;23.80;;;;;;5047052;28;20900;-80
2023/08/20 05:43:54;;;;;;;48.63;10.80;;;21.50;23.40;;;;;;5050551;28;20432;-80
2023/08/20 05:46:24;;;;;;;42.03;9.77;;;21.60;23.90;;;;;;5041071;28;20502;-80
2023/08/20 05:48:50;;;;;;;60.97;10.30;;;21.80;23.60;;;;;;5044454;28;20445;-80
2023/08/20 05:51:24;;;;;;;48.90;9.90;;;21.90;23.50;;;;;;5043426;28;20481;-80
2023/08/20 05:53:54;;;;;;;42.23;9.43;;;;;;;;;;5042538;28;20180;-80
2023/08/20 05:56:20;;;;;;;46.07;9.30;;;22.30;16.60;;;;;;5049304;28;20413;-80
2023/08/20 05:58:48;;;;;;;39.90;9.53;;;22.40;18.40;;;;;;5048672;28;20436;-80
2023/08/20 06:01:18;;;;;;;40.83;10.43;;;22.60;14.30;;;;;;5040229;28;20186;-80
2023/08/20 06:03:44;;;;;;;42.07;9.67;;;22.60;15.70;;;;;;5044220;28;20415;-80
2023/08/20 06:06:18;;;;;;;40.73;9.00;;;22.70;13.80;;;;;;5053905;28;20437;-79
2023/08/20 06:09:06;;;;;;;41.40;9.53;;;22.80;10.40;;;;;;5053005;28;20181;-80
2023/08/20 06:11:31;;;;;;;44.07;9.90;;;22.90;8.10;;;;;;5049789;28;20459;-79
2023/08/20 06:13:57;;;;;;;42.47;8.90;;;23.00;4.70;;;;;;5066556;28;20451;-80
2023/08/20 06:16:36;;;;;;;43.13;8.70;;;23.00;3.40;;;;;;5054209;28;20190;-81
2023/08/20 06:19:02;;;;;;;45.03;9.87;;;23.10;2.50;;;;;;5045448;28;20444;-82
2023/08/20 06:21:36;;;;;;;43.67;10.10;;;23.30;1.00;;;;;;5043404;28;20909;-80
2023/08/20 06:24:07;;;;;;;48.17;10.57;;;23.40;1.00;;;;;;5052219;28;20433;-80
2023/08/20 06:26:36;;;;;;;37.50;10.10;;;23.50;1.00;;;;;;5042100;28;20425;-81
2023/08/20 06:29:06;;;;;;;44.90;10.53;;;23.70;1.00;;;;;;5035269;28;20947;-81
2023/08/20 06:31:32;;;;;;;46.80;11.07;;;23.80;1.00;;;;;;5037840;28;20470;-80
2023/08/20 06:34:36;;;;;;;42.90;10.40;;;24.00;1.00;;;;;;5053687;28;20899;-80
2023/08/20 06:37:12;;;;;;;41.43;11.00;;;24.10;1.00;;;;;;5049269;28;20267;-81
2023/08/20 06:39:54;;;;;;;39.83;10.03;;;24.10;1.00;;;;;;5050745;28;20435;-81
2023/08/20 06:42:30;;;;;;;39.63;10.17;;;24.20;1.00;;;;;;5035519;28;20970;-81
2023/08/20 06:45:00;;;;;;;41.73;8.70;;;24.20;1.00;;;;;;5052777;28;20425;-80
2023/08/20 06:47:31;;;;;;;37.13;9.50;;;24.30;1.00;;;;;;5045356;28;20964;-86
2023/08/20 06:50:15;;;;;;;37.20;8.40;;;24.30;1.00;;;;;;5046104;28;21057;-86
2023/08/20 06:52:54;;;;;;;38.80;9.03;;;24.40;1.00;;;;;;5040843;28;20435;-86
2023/08/20 06:55:54;;;;;;;40.73;9.10;;;24.50;1.00;;;;;;5042255;28;20930;-86
2023/08/20 06:58:54;;;;;;;44.03;9.83;;;24.60;1.00;;;;;;5051037;28;20420;-86
2023/08/20 07:01:24;;;;;;;36.80;8.73;;;24.70;1.00;;;;;;5053490;28;20432;-80
2023/08/20 07:04:12;;;;;;;37.80;9.20;;;24.80;1.00;;;;;;5052355;28;20841;-82
2023/08/20 07:07:00;;;;;;;34.57;8.60;;;25.00;1.00;;;;;;5044941;28;20759;-81
2023/08/20 07:09:38;;;;;;;35.40;8.90;;;25.20;1.00;;;;;;5052853;28;20426;-82
2023/08/20 07:12:18;;;;;;;35.80;8.50;;;;;;;;;;5044519;28;20482;-82
2023/08/20 07:14:44;;;;;;;35.70;8.27;;;25.50;1.00;;;;;;5053089;28;20919;-82
2023/08/20 07:17:11;;;;;;;35.93;8.90;;;25.60;1.00;;;;;;5051924;28;20474;-80
2023/08/20 07:19:42;;;;;;;33.00;8.43;;;25.60;1.00;;;;;;5051026;28;20189;-81
2023/08/20 07:22:24;;;;;;;32.10;7.57;;;25.60;1.00;;;;;;5053315;28;20440;-82
2023/08/20 07:24:54;;;;;;;39.20;8.17;;;25.70;1.00;;;;;;5055882;28;20431;-82
2023/08/20 07:27:24;;;;;;;37.03;8.13;;;25.70;1.00;;;;;;5054681;28;20438;-82
2023/08/20 07:29:54;;;;;;;33.80;8.40;;;25.70;1.00;;;;;;5056204;28;20503;-82
2023/08/20 07:32:36;;;;;;;32.57;7.83;;;25.70;1.00;;;;;;5053820;28;20972;-81
2023/08/20 07:35:18;;;;;;;40.13;7.40;;;25.80;1.00;;;;;;5043007;28;20937;-81
2023/08/20 07:37:46;;;;;;;35.73;8.40;;;25.80;1.00;;;;;;5047247;28;20425;-81
2023/08/20 07:40:24;;;;;;;38.93;8.23;;;25.90;1.00;;;;;;5054904;28;20458;-81
2023/08/20 07:42:56;;;;;;;38.30;7.63;;;25.90;1.00;;;;;;5042136;28;20444;-81
2023/08/20 07:45:24;;;;;;;35.60;8.00;;;26.00;1.00;;;;;;5046213;28;20834;-81
2023/08/20 07:47:54;;;;;;;35.10;7.97;;;26.00;1.00;;;;;;5043522;28;20435;-83
2023/08/20 07:50:24;;;;;;;35.97;7.80;;;26.00;1.00;;;;;;5054690;28;20975;-83
2023/08/20 07:52:54;;;;;;;39.30;8.90;;;26.10;1.00;;;;;;5050022;28;20468;-83
2023/08/20 07:55:24;;;;;;;40.40;8.33;;;26.20;1.00;;;;;;5056566;28;20399;-84
2023/08/20 07:57:54;;;;;;;39.73;8.10;;;26.20;1.00;;;;;;5041983;28;20437;-83
2023/08/20 08:00:36;;;;;;;36.43;8.00;;;26.20;1.00;;;;;;5052289;28;20446;-83
2023/08/20 08:03:27;;;;;;;34.10;7.90;;;26.40;1.00;;;;;;5055284;28;20431;-85
2023/08/20 08:05:54;;;;;;;36.40;7.90;;;26.50;1.00;;;;;;5054254;28;20429;-83
2023/08/20 08:08:37;;;;;;;33.60;8.10;;;26.50;1.00;;;;;;5056435;28;20418;-84
2023/08/20 08:11:12;;;;;;;35.83;8.87;;;26.60;1.00;;;;;;5048041;28;20519;-81
2023/08/20 08:13:42;;;;;;;34.63;8.10;;;26.70;1.00;;;;;;5052579;28;20924;-81
2023/08/20 08:16:18;;;;;;;34.83;7.87;;;26.70;1.00;;;;;;5040007;28;20934;-82
2023/08/20 08:19:06;;;;;;;35.77;8.37;;;26.70;1.00;;;;;;5051088;28;20425;-81
2023/08/20 08:21:49;;;;;;;37.50;7.80;;;26.70;1.00;;;;;;5055842;28;20420;-81
2023/08/20 08:24:18;;;;;;;33.70;8.20;;;26.80;1.00;;;;;;5043525;28;20417;-81
2023/08/20 08:26:48;;;;;;;31.67;8.00;;;26.80;1.00;;;;;;5055006;28;20813;-81
2023/08/20 08:29:18;;;;;;;33.93;8.37;;;26.80;1.00;;;;;;5055983;28;20874;-81
2023/08/20 08:32:18;;;;;;;40.13;8.30;;;26.80;1.00;;;;;;5042853;28;20784;-82
2023/08/20 08:34:54;;;;;;;35.93;7.67;;;26.90;1.00;;;;;;5048582;28;20501;-81
2023/08/20 08:37:24;;;;;;;33.03;8.13;;;26.90;1.00;;;;;;5037434;28;20440;-81
2023/08/20 08:40:18;;;;;;;35.20;8.80;;;27.00;1.00;;;;;;5049262;28;20453;-81
2023/08/20 08:42:49;;;;;;;39.03;8.40;;;27.10;1.00;;;;;;5048942;28;20782;-81
2023/08/20 08:45:26;;;;;;;32.47;8.30;;;27.10;1.00;;;;;;5049026;28;20463;-81
2023/08/20 08:47:54;;;;;;;34.20;8.03;;;27.30;1.00;;;;;;5044787;28;20890;-81
2023/08/20 08:50:25;;;;;;;36.67;8.27;;;27.30;1.00;;;;;;5053008;28;21041;-81
2023/08/20 08:53:07;;;;;;;35.00;7.50;;;27.40;1.00;;;;;;5040329;28;20444;-81
2023/08/20 08:55:48;;;;;;;33.50;8.27;;;27.50;1.00;;;;;;5049858;28;20468;-81
2023/08/20 08:58:18;;;;;;;34.00;8.80;;;27.50;1.00;;;;;;5048240;28;20459;-82
2023/08/20 09:00:55;;;;;;;35.33;8.77;;;27.60;1.00;;;;;;5049346;28;20985;-81
2023/08/20 09:03:30;;;;;;;35.80;7.70;;;27.60;1.00;;;;;;5044271;28;20452;-84
2023/08/20 09:06:03;;;;;;;32.77;8.07;;;27.60;1.00;;;;;;5048332;28;20955;-84
2023/08/20 09:09:06;;;;;;;35.50;8.80;;;27.60;1.00;;;;;;5034412;28;20763;-84
2023/08/20 09:15:11;;;;;;;42.90;9.03;;;27.80;1.00;;;;;;5039151;28;20427;-85
2023/08/20 09:17:54;;;;;;;34.30;8.20;;;28.00;1.00;;;;;;5041086;28;20488;-85
2023/08/20 09:20:35;;;;;;;37.93;8.33;;;28.10;1.00;;;;;;5041997;28;20426;-84
2023/08/20 09:23:13;;;;;;;36.93;8.20;;;28.20;1.00;;;;;;5049710;28;21178;-84
2023/08/20 09:29:06;;;;;;;34.00;8.67;;;28.40;1.00;;;;;;5046093;28;20420;-84
2023/08/20 09:31:43;;;;;;;35.20;9.60;;;28.50;1.00;;;;;;5051048;28;20559;-84
2023/08/20 09:34:13;;;;;;;37.23;9.40;;;28.50;1.00;;;;;;5048171;28;20516;-81
2023/08/20 09:36:48;;;;;;;35.07;8.37;;;28.40;1.00;;;;;;5054387;28;20407;-81
2023/08/20 09:39:42;;;;;;;36.60;9.30;;;28.50;1.00;;;;;;5054320;28;20930;-81
2023/08/20 09:42:13;;;;;;;37.33;9.03;;;28.50;1.00;;;;;;5050337;28;20511;-81
2023/08/20 09:44:40;;;;;;;34.00;8.30;;;28.60;1.00;;;;;;5039714;28;20509;-81
2023/08/20 09:47:09;;;;;;;39.57;9.47;;;28.70;1.00;;;;;;5052777;28;20495;-82
2023/08/20 09:50:02;;;;;;;33.70;9.43;;;28.70;1.00;;;;;;5051754;28;20428;-82
2023/08/20 09:52:44;;;;;;;37.40;8.30;;;28.90;1.00;;;;;;5046445;28;20428;-82
2023/08/20 09:55:21;;;;;;;33.70;8.07;;;29.00;1.00;;;;;;5045633;28;20762;-82
2023/08/20 09:57:49;;;;;;;34.77;7.80;;;29.00;1.00;;;;;;5050716;28;20957;-82
2023/08/20 10:00:31;;;;;;;32.70;7.80;;;29.10;1.00;;;;;;5043993;28;20912;-82
2023/08/20 10:03:07;;;;;;;33.90;7.70;;;29.10;1.00;;;;;;5043230;28;20438;-82
2023/08/20 10:05:33;;;;;;;32.80;7.73;;;29.20;1.00;;;;;;5047626;28;20507;-81
2023/08/20 10:08:07;;;;;;;31.70;8.10;;;29.30;1.00;;;;;;5036044;28;20917;-82
2023/08/20 10:10:36;;;;;;;34.10;8.47;;;29.40;1.00;;;;;;5049739;28;20475;-82
2023/08/20 10:13:03;;;;;;;36.60;8.33;;;29.50;1.00;;;;;;5045802;28;20437;-82
2023/08/20 10:15:31;;;;;;;35.73;8.90;;;29.60;1.00;;;;;;5050845;28;20504;-82
2023/08/20 10:18:19;;;;;;;35.93;8.67;;;29.80;1.00;;;;;;5048491;28;20441;-84
2023/08/20 10:20:51;;;;;;;32.53;7.80;;;29.80;1.00;;;;;;5049490;28;20929;-85
2023/08/20 10:23:24;;;;;;;33.37;7.70;;;29.90;1.00;;;;;;5052902;28;20433;-85
2023/08/20 10:26:24;;;;;;;31.93;7.60;;;30.00;1.00;;;;;;5051489;28;20422;-84
2023/08/20 10:29:27;;;;;;;30.77;8.00;;;30.00;1.00;;;;;;5012317;28;20420;-85
2023/08/20 10:32:45;;;;;;;31.30;7.93;;;30.20;1.00;;;;;;5010547;28;21009;-85
2023/08/20 10:35:11;;;;;;;31.53;7.90;;;30.40;1.00;;;;;;4912643;29;20452;-85
2023/08/20 10:38:30;;;;;;;30.17;7.23;;;30.50;1.00;;;;;;4890132;29;20430;-85
2023/08/20 10:41:08;;;;;;;31.13;7.50;;;30.40;1.00;;;;;;4897708;29;20433;-84
2023/08/20 10:43:46;;;;;;;32.93;8.10;;;30.50;1.00;;;;;;4871717;29;20433;-85
2023/08/20 10:47:00;;;;;;;31.10;8.13;;;30.50;1.00;;;;;;4897021;29;20795;-84
2023/08/20 10:49:27;;;;;;;31.60;7.90;;;30.50;1.00;;;;;;4895545;29;20525;-85
2023/08/20 10:51:56;;;;;;;31.73;7.40;;;30.60;1.00;;;;;;4901908;29;20441;-85
2023/08/20 10:54:24;;;;;;;30.73;7.80;;;30.70;1.00;;;;;;4909511;29;20433;-85
2023/08/20 10:57:36;;;;;;;31.10;7.70;;;30.70;1.00;;;;;;4889791;29;20525;-85
2023/08/20 11:00:15;;;;;;;33.77;8.37;;;30.70;1.00;;;;;;4898470;29;20416;-85
2023/08/20 11:02:55;;;;;;;33.37;8.13;;;30.90;1.00;;;;;;4896552;29;20413;-86
2023/08/20 11:05:31;;;;;;;33.57;7.90;;;30.90;1.00;;;;;;4928445;29;20478;-82
2023/08/20 11:11:18;;;;;;;31.03;6.53;;;31.10;1.00;;;;;;5014767;28;20515;-82
2023/08/20 11:13:48;;;;;;;31.07;6.33;;;31.20;1.00;;;;;;5052259;28;20478;-82
2023/08/20 11:16:25;;;;;;;29.40;5.43;;;31.20;1.00;;;;;;5049227;28;20446;-79
2023/08/20 11:18:54;;;;;;;34.37;6.47;;;31.30;1.00;;;;;;5051356;28;20437;-79
2023/08/20 11:21:42;;;;;;;32.07;7.10;;;31.30;1.00;;;;;;5051799;28;20422;-80
2023/08/20 11:24:38;;;;;;;29.53;6.90;;;31.30;1.00;;;;;;5045921;28;20418;-80
2023/08/20 11:27:04;;;;;;;32.60;7.07;;;31.40;1.00;;;;;;5048369;28;20469;-83
2023/08/20 11:29:31;;;;;;;31.40;7.07;;;31.50;1.00;;;;;;5034864;28;20458;-80
2023/08/20 11:31:58;;;;;;;31.90;7.73;;;31.50;1.00;;;;;;5047432;28;20179;-79
2023/08/20 11:35:19;;;;;;;35.10;7.40;;;31.50;1.00;;;;;;5052871;28;20472;-85
2023/08/20 11:38:12;;;;;;;31.60;6.83;;;31.40;1.00;;;;;;5043388;28;20430;-85
2023/08/20 11:40:42;;;;;;;33.30;6.37;;;31.50;1.00;;;;;;5044451;28;20439;-84
2023/08/20 11:43:18;;;;;;;28.10;5.70;;;31.60;1.00;;;;;;5048356;28;20933;-85
2023/08/20 11:46:19;;;;;;;31.23;6.57;;;31.80;1.00;;;;;;5052632;28;20441;-84
2023/08/20 11:49:06;;;;;;;32.07;5.90;;;31.80;1.00;;;;;;5041338;28;20446;-80
2023/08/20 11:52:06;;;;;;;27.90;5.87;;;31.90;1.00;;;;;;5044243;28;21046;-79
2023/08/20 11:54:36;;;;;;;29.57;5.50;;;32.00;1.00;;;;;;5052831;28;20415;-80
2023/08/20 11:57:45;;;;;;;29.10;5.50;;;32.00;1.00;;;;;;5049151;28;20948;-80
2023/08/20 12:00:27;;;;;;;28.97;5.50;;;32.10;1.00;;;;;;5051278;28;20798;-80
2023/08/20 12:02:57;;;;;;;29.77;5.40;;;32.20;1.00;;;;;;5050549;28;20782;-79
2023/08/20 12:05:42;;;;;;;32.30;6.03;;;32.30;1.00;;;;;;5049736;28;20897;-85
2023/08/20 12:08:08;;;;;;;28.20;5.40;;;32.30;1.00;;;;;;5043205;28;20491;-85
2023/08/20 12:11:12;;;;;;;29.73;5.10;;;32.10;1.00;;;;;;5055289;28;20549;-86
2023/08/20 12:13:55;;;;;;;27.63;5.37;;;32.20;1.00;;;;;;5049844;28;20180;-85
2023/08/20 12:16:36;;;;;;;27.60;5.33;;;32.30;1.00;;;;;;5046980;28;20456;-85
2023/08/20 12:19:48;;;;;;;28.97;5.00;;;32.40;1.00;;;;;;5042440;28;20954;-85
2023/08/20 12:22:24;;;;;;;30.63;5.33;;;32.60;1.00;;;;;;5043463;28;20465;-85
2023/08/20 12:25:00;;;;;;;25.73;4.60;;;32.60;1.00;;;;;;5048624;28;20466;-86
2023/08/20 12:27:48;;;;;;;26.80;4.83;;;32.70;1.00;;;;;;5064643;28;20438;-86
2023/08/20 12:30:18;;;;;;;32.60;5.00;;;32.70;1.00;;;;;;5045434;28;20454;-85
2023/08/20 12:33:19;;;;;;;28.90;5.07;;;32.80;1.00;;;;;;5045722;28;20441;-86
2023/08/20 12:35:48;;;;;;;33.83;6.33;;;32.90;1.00;;;;;;5050365;28;20450;-85
2023/08/20 12:38:36;;;;;;;25.80;4.00;;;32.90;1.00;;;;;;5045090;28;20430;-85
2023/08/20 12:41:19;;;;;;;28.60;4.17;;;32.90;1.00;;;;;;5051153;28;20445;-86
2023/08/20 12:44:24;;;;;;;28.33;4.30;;;33.00;1.00;;;;;;5047595;28;20452;-85
2023/08/20 12:46:55;;;;;;;31.10;4.67;;;33.10;1.00;;;;;;5045382;28;20437;-86
2023/08/20 12:49:30;;;;;;;26.40;4.77;;;33.10;1.00;;;;;;5051611;28;20444;-86
2023/08/20 12:52:07;;;;;;;26.07;4.60;;;33.20;1.00;;;;;;5056089;28;20398;-86
2023/08/20 12:54:36;;;;;;;28.13;4.93;;;33.40;1.00;;;;;;5049166;28;20410;-86
2023/08/20 13:03:46;;;;;;;26.40;4.60;;;33.20;1.00;;;;;;5045513;28;20422;-86
2023/08/20 13:06:30;;;;;;;28.03;4.30;;;33.40;1.00;;;;;;5046659;28;20430;-86
2023/08/20 13:09:15;;;;;;;26.40;4.73;;;33.40;1.00;;;;;;5042984;28;20945;-86
2023/08/20 13:12:30;;;;;;;29.10;5.37;;;33.50;1.00;;;;;;5047709;28;20458;-86
2023/08/20 13:15:03;;;;;;;27.07;4.73;;;33.60;1.00;;;;;;5044441;28;20439;-87
2023/08/20 13:17:29;;;;;;;27.60;3.97;;;33.60;1.00;;;;;;5050586;28;20450;-87
2023/08/20 13:20:11;;;;;;;28.77;4.67;;;33.70;1.00;;;;;;5040818;28;20458;-83
2023/08/20 13:23:18;;;;;;;25.43;4.50;;;33.70;1.00;;;;;;5044277;28;20427;-81
2023/08/20 13:25:48;;;;;;;30.20;4.93;;;33.80;1.00;;;;;;5034768;28;20427;-79
2023/08/20 13:28:14;;;;;;;26.27;4.60;;;33.90;1.00;;;;;;5047549;28;20430;-79
2023/08/20 13:30:48;;;;;;;26.50;4.00;;;34.00;1.00;;;;;;5053624;28;20783;-79
2023/08/20 13:33:18;;;;;;;26.80;4.30;;;33.80;1.00;;;;;;5052953;28;20190;-80
2023/08/20 13:35:48;;;;;;;26.40;4.20;;;33.90;1.00;;;;;;5053299;28;20438;-79
2023/08/20 13:38:15;;;;;;;27.43;4.20;;;33.80;1.00;;;;;;5051595;28;20421;-79
2023/08/20 13:40:42;;;;;;;32.90;4.73;;;33.80;1.00;;;;;;5051056;28;20844;-79
2023/08/20 13:43:09;;;;;;;27.53;4.73;;;33.90;1.00;;;;;;5044652;28;20456;-80
2023/08/20 13:45:35;;;;;;;29.70;4.27;;;;;;;;;;5053065;28;20450;-80
2023/08/20 13:48:01;;;;;;;28.40;4.67;;;34.30;1.00;;;;;;5039870;28;20930;-80
2023/08/20 13:50:31;;;;;;;27.33;4.10;;;34.40;1.00;;;;;;5063313;28;20470;-80